Time;durP1;ratioP1;P1;durP2;ratioP2;P2;SDS_P1;SDS_P2;PMS_P1;PMS_P2;Temp;Humidity;BMP_temperature;BMP_pressure;BME280_temperature;BME280_humidity;BME280_pressure;Samples;Min_cycle;Max_cycle;Signal;HPM_P1;HPM_P2
2023/03/21 00:03:57;;;;;;;1999.90;999.90;;;10.40;99.90;;;;;;6663894;88;20210;-77
2023/03/21 00:14:01;;;;;;;1999.90;999.90;;;10.40;99.90;;;;;;6679551;88;20190;-77
2023/03/21 00:24:01;;;;;;;1999.90;999.90;;;10.30;99.90;;;;;;6674484;88;20699;-78
2023/03/21 00:34:02;;;;;;;1999.90;999.90;;;10.20;99.90;;;;;;6667475;88;20207;-77
2023/03/21 00:44:03;;;;;;;1999.90;999.90;;;10.20;99.90;;;;;;6676494;88;20300;-78
2023/03/21 00:54:04;;;;;;;1999.90;999.90;;;10.20;99.90;;;;;;6669981;88;20220;-77
2023/03/21 01:04:06;;;;;;;1999.90;999.90;;;10.20;99.90;;;;;;6666591;88;20180;-76
2023/03/21 01:14:07;;;;;;;1999.90;999.90;;;10.20;99.90;;;;;;6671635;88;20197;-76
2023/03/21 01:24:09;;;;;;;1999.90;999.90;;;10.10;99.90;;;;;;6672089;88;20187;-76
2023/03/21 01:34:10;;;;;;;1999.90;999.90;;;10.10;99.90;;;;;;6681746;88;20687;-76
2023/03/21 01:44:16;;;;;;;1999.90;999.90;;;10.00;99.90;;;;;;6673899;88;20197;-76
2023/03/21 01:54:26;;;;;;;1999.90;999.90;;;10.10;99.90;;;;;;6670326;88;20220;-76
2023/03/21 02:04:27;;;;;;;1999.90;999.90;;;10.10;99.90;;;;;;6665548;88;20350;-76
2023/03/21 02:14:31;;;;;;;1999.90;999.90;;;10.10;99.90;;;;;;6662145;88;20183;-75
2023/03/21 02:24:38;;;;;;;1999.90;999.90;;;10.10;99.90;;;;;;6667114;88;20693;-76
2023/03/21 02:34:53;;;;;;;1999.90;999.90;;;10.00;99.90;;;;;;6666884;88;20753;-76
2023/03/21 02:45:03;;;;;;;1999.90;999.90;;;10.00;99.90;;;;;;6670390;88;20227;-76
2023/03/21 02:55:12;;;;;;;1999.90;999.90;;;10.00;99.90;;;;;;6680043;88;20608;-76
2023/03/21 03:05:22;;;;;;;1999.90;999.90;;;9.90;99.90;;;;;;6665445;88;20187;-76
2023/03/21 03:15:28;;;;;;;1999.90;999.90;;;9.90;99.90;;;;;;6664972;88;21129;-76
2023/03/21 03:25:41;;;;;;;1999.90;999.90;;;9.80;99.90;;;;;;6662710;88;20222;-76
2023/03/21 03:35:44;;;;;;;1999.90;999.90;;;9.80;99.90;;;;;;6670152;88;20181;-76
2023/03/21 03:45:55;;;;;;;1999.90;999.90;;;9.70;99.90;;;;;;6682510;88;20184;-76
2023/03/21 03:55:57;;;;;;;1999.90;999.90;;;9.60;99.90;;;;;;6666713;88;20201;-76
2023/03/21 04:05:58;;;;;;;1999.90;999.90;;;9.60;99.90;;;;;;6669606;88;20656;-76
2023/03/21 04:15:59;;;;;;;1999.90;999.90;;;9.50;99.90;;;;;;6675606;88;20199;-76
2023/03/21 04:25:59;;;;;;;1999.90;999.90;;;9.60;99.90;;;;;;6666011;89;20618;-76
2023/03/21 04:36:00;;;;;;;1999.90;999.90;;;9.60;99.90;;;;;;6668536;88;20695;-77
2023/03/21 04:46:00;;;;;;;1999.90;999.90;;;9.60;99.90;;;;;;6665717;88;20182;-76
2023/03/21 04:56:01;;;;;;;1999.90;999.90;;;9.40;99.90;;;;;;6668612;88;20168;-76
2023/03/21 05:06:02;;;;;;;1999.90;999.90;;;9.40;99.90;;;;;;6667250;89;20206;-76
2023/03/21 05:16:02;;;;;;;1999.90;999.90;;;9.40;99.90;;;;;;6666701;89;20172;-76
2023/03/21 05:26:07;;;;;;;1999.90;999.90;;;9.40;99.90;;;;;;6666099;89;20189;-76
2023/03/21 05:36:08;;;;;;;1999.90;999.90;;;9.50;99.90;;;;;;6667472;88;20187;-76
2023/03/21 05:46:10;;;;;;;1999.90;999.90;;;9.40;99.90;;;;;;6664677;88;20243;-76
2023/03/21 05:56:11;;;;;;;1999.90;999.90;;;9.40;99.90;;;;;;6672842;88;20180;-76
2023/03/21 06:06:11;;;;;;;1999.90;999.90;;;9.50;99.90;;;;;;6674258;88;20719;-76
2023/03/21 06:16:12;;;;;;;1999.90;999.90;;;9.60;99.90;;;;;;6667314;88;20192;-76
2023/03/21 06:26:13;;;;;;;1999.90;999.90;;;9.50;99.90;;;;;;6674696;88;20198;-76
2023/03/21 06:36:14;;;;;;;1999.90;999.90;;;9.60;99.90;;;;;;6666568;88;20196;-77
2023/03/21 06:46:14;;;;;;;1999.90;999.90;;;9.90;99.90;;;;;;6669367;88;20294;-77
2023/03/21 06:56:15;;;;;;;1999.90;999.90;;;9.90;99.90;;;;;;6665672;88;20241;-77
2023/03/21 07:06:15;;;;;;;1999.90;999.90;;;10.10;99.90;;;;;;6673060;88;20248;-77
2023/03/21 07:16:17;;;;;;;1999.90;999.90;;;10.30;99.90;;;;;;6666604;88;20704;-79
2023/03/21 07:26:18;;;;;;;1999.90;999.90;;;10.60;99.90;;;;;;6669699;89;20296;-79
2023/03/21 07:36:18;;;;;;;1999.90;999.90;;;10.50;99.90;;;;;;6670539;88;20324;-78
2023/03/21 07:46:19;;;;;;;1999.90;999.90;;;10.40;99.90;;;;;;6667204;88;21020;-77
2023/03/21 07:56:20;;;;;;;1999.90;999.90;;;10.00;99.90;;;;;;6666814;88;20278;-77
2023/03/21 08:06:22;;;;;;;1999.90;999.90;;;9.70;99.90;;;;;;6670340;88;20227;-76
2023/03/21 08:16:23;;;;;;;1999.90;999.90;;;9.50;99.90;;;;;;6661845;88;20222;-75
2023/03/21 08:26:25;;;;;;;1999.90;999.90;;;9.30;99.90;;;;;;6665421;88;20228;-78
2023/03/21 08:36:25;;;;;;;1999.90;999.90;;;9.20;99.90;;;;;;6667975;88;20213;-77
2023/03/21 08:46:26;;;;;;;1999.90;999.90;;;9.10;99.90;;;;;;6668274;88;20191;-78
2023/03/21 08:56:27;;;;;;;1999.90;999.90;;;9.20;99.90;;;;;;6667490;88;20506;-78
2023/03/21 09:06:28;;;;;;;1999.90;999.90;;;9.20;99.90;;;;;;6666360;88;20224;-77
2023/03/21 09:16:30;;;;;;;1999.90;999.90;;;9.10;99.90;;;;;;6662980;88;20216;-76
2023/03/21 09:26:31;;;;;;;1999.90;999.90;;;9.00;99.90;;;;;;6662724;88;20570;-76
2023/03/21 09:36:33;;;;;;;1999.90;999.90;;;9.10;99.90;;;;;;6670279;87;21339;-75
2023/03/21 09:57:41;;;;;;;1999.90;999.90;;;9.10;99.90;;;;;;6644913;89;20222;-80
2023/03/21 10:07:50;;;;;;;1999.90;999.90;;;9.00;99.90;;;;;;6659493;88;20212;-80
2023/03/21 10:17:59;;;;;;;1999.90;999.90;;;8.90;99.90;;;;;;6642607;89;20250;-80
2023/03/21 10:28:01;;;;;;;1999.90;999.90;;;9.10;99.90;;;;;;6642862;89;20329;-81
2023/03/21 10:38:04;;;;;;;1999.90;999.90;;;9.10;99.90;;;;;;6671533;88;20180;-83
2023/03/21 10:48:06;;;;;;;1999.90;999.90;;;9.10;99.90;;;;;;6673101;88;20204;-82
2023/03/21 10:58:17;;;;;;;1999.90;999.90;;;9.00;99.90;;;;;;6642759;89;20231;-80
2023/03/21 11:08:18;;;;;;;1999.90;999.90;;;9.10;99.90;;;;;;6656595;88;20181;-80
2023/03/21 11:18:23;;;;;;;1999.90;999.90;;;9.20;99.90;;;;;;6654997;88;20337;-80
2023/03/21 11:28:32;;;;;;;1999.90;999.90;;;9.40;99.90;;;;;;6622783;89;20189;-79
2023/03/21 11:38:37;;;;;;;1999.90;999.90;;;9.40;99.90;;;;;;6626847;89;20793;-78
2023/03/21 11:48:41;;;;;;;1999.90;999.90;;;9.40;99.90;;;;;;6622978;89;20276;-77
2023/03/21 11:58:57;;;;;;;1999.90;999.90;;;9.30;99.90;;;;;;6623678;89;20207;-75
2023/03/21 12:09:30;;;;;;;1999.90;999.90;;;9.30;99.90;;;;;;6634048;88;20190;-77
2023/03/21 12:19:50;;;;;;;1999.90;999.90;;;9.30;99.90;;;;;;6619409;89;20779;-79
2023/03/21 12:30:11;;;;;;;1999.90;999.90;;;9.40;99.90;;;;;;6626759;89;20808;-81
2023/03/21 12:40:38;;;;;;;1999.90;999.90;;;9.40;99.90;;;;;;6621184;89;20188;-79
2023/03/21 12:50:39;;;;;;;1999.90;999.90;;;9.40;99.90;;;;;;6617944;89;20189;-78
2023/03/21 13:00:53;;;;;;;1999.90;999.90;;;9.40;99.90;;;;;;6617019;89;20231;-79
2023/03/21 13:10:55;;;;;;;1999.90;999.90;;;9.60;99.90;;;;;;6620736;89;20274;-79
2023/03/21 13:20:57;;;;;;;1999.90;999.90;;;9.90;99.90;;;;;;6621911;89;20238;-78
2023/03/21 13:31:19;;;;;;;1999.90;999.90;;;10.10;99.90;;;;;;6622543;89;20624;-79
2023/03/21 13:41:30;;;;;;;1999.90;999.90;;;10.30;99.90;;;;;;6621916;89;20239;-78
2023/03/21 13:51:51;;;;;;;1999.90;999.90;;;10.60;99.90;;;;;;6620811;89;20732;-78
2023/03/21 14:02:10;;;;;;;1999.90;999.90;;;10.70;99.90;;;;;;6622673;88;20276;-79
2023/03/21 14:12:17;;;;;;;1999.90;999.90;;;10.80;99.90;;;;;;6631918;89;20812;-79
2023/03/21 14:22:17;;;;;;;1999.90;999.90;;;10.90;99.90;;;;;;6620492;89;20692;-79
2023/03/21 14:32:22;;;;;;;1999.90;999.90;;;11.10;99.90;;;;;;6620684;89;20313;-78
2023/03/21 14:42:24;;;;;;;1999.90;999.90;;;11.10;99.90;;;;;;6638067;89;20665;-80
2023/03/21 14:52:28;;;;;;;1999.90;999.90;;;11.00;99.90;;;;;;6638603;89;20228;-80
2023/03/21 15:02:33;;;;;;;1999.90;999.90;;;11.20;99.90;;;;;;6637621;89;20196;-79
2023/03/21 15:12:34;;;;;;;1999.90;999.90;;;11.40;99.90;;;;;;6637992;89;20222;-79
2023/03/21 15:22:46;;;;;;;1999.90;999.90;;;11.70;99.90;;;;;;6638100;89;20215;-79
2023/03/21 15:32:47;;;;;;;1999.90;999.90;;;12.00;99.90;;;;;;6643702;89;20654;-80
2023/03/21 15:43:28;;;;;;;1999.90;999.90;;;12.30;99.90;;;;;;6667674;78;20842;-81
2023/03/21 15:53:34;;;;;;;1999.90;999.90;;;12.60;99.90;;;;;;6677535;88;20278;-80
2023/03/21 16:03:39;;;;;;;1999.90;999.90;;;12.50;99.90;;;;;;6673093;88;20191;-81
2023/03/21 16:13:40;;;;;;;1999.90;999.90;;;12.90;99.90;;;;;;6682092;88;20180;-81
2023/03/21 16:23:40;;;;;;;1999.90;999.90;;;13.20;99.90;;;;;;6682292;89;20291;-81
2023/03/21 16:33:41;;;;;;;1999.90;999.90;;;13.20;99.90;;;;;;6678243;88;20914;-79
2023/03/21 16:43:43;;;;;;;1999.90;999.90;;;13.20;99.90;;;;;;6687539;87;20250;-79
2023/03/21 16:53:44;;;;;;;1999.90;999.90;;;13.00;99.90;;;;;;6680643;89;20651;-82
2023/03/21 17:03:47;;;;;;;1999.90;999.90;;;12.90;99.90;;;;;;6680249;87;20164;-81
2023/03/21 17:13:49;;;;;;;1999.90;999.90;;;12.80;99.90;;;;;;6694774;87;20215;-81
2023/03/21 17:23:51;;;;;;;1999.90;999.90;;;12.70;99.90;;;;;;6694049;87;20226;-81
2023/03/21 17:33:52;;;;;;;1999.90;999.90;;;12.40;99.90;;;;;;6694872;87;20724;-80
2023/03/21 17:43:54;;;;;;;1999.90;999.90;;;12.10;99.90;;;;;;6673189;88;20370;-79
2023/03/21 18:04:56;;;;;;;1999.90;999.90;;;12.10;99.90;;;;;;6708636;88;20222;-76
2023/03/21 18:14:57;;;;;;;1999.90;999.90;;;12.00;99.90;;;;;;6723145;88;20171;-81
2023/03/21 18:24:58;;;;;;;1999.90;999.90;;;12.10;99.90;;;;;;6709728;88;20198;-79
2023/03/21 18:35:19;;;;;;;1999.90;999.90;;;12.00;99.90;;;;;;6759460;78;20185;-80
2023/03/21 20:35:58;;;;;;;1999.90;999.90;;;11.60;99.90;;;;;;7575734;77;21579;31
2023/03/21 21:16:53;;;;;;;1999.90;999.90;;;11.70;99.90;;;;;;6783366;77;20284;-82
2023/03/21 21:26:58;;;;;;;1999.90;999.90;;;11.70;99.90;;;;;;6718475;88;20159;-81
2023/03/21 21:37:02;;;;;;;1999.90;999.90;;;11.70;99.90;;;;;;6714957;88;20243;-83
2023/03/21 21:47:43;;;;;;;1999.90;999.90;;;11.50;99.90;;;;;;6720769;77;20190;-77
2023/03/21 21:57:49;;;;;;;1999.90;999.90;;;11.50;99.90;;;;;;6732244;88;20240;-77
2023/03/21 22:07:51;;;;;;;1999.90;999.90;;;11.50;99.90;;;;;;6724555;88;20650;-78
2023/03/21 22:17:52;;;;;;;1999.90;999.90;;;11.50;99.90;;;;;;6721350;88;20322;-77
2023/03/21 22:27:53;;;;;;;1999.90;999.90;;;11.30;99.90;;;;;;6727441;88;20231;-77
2023/03/21 22:37:53;;;;;;;1999.90;999.90;;;11.30;99.90;;;;;;6729516;88;20199;-77
2023/03/21 22:47:54;;;;;;;1999.90;999.90;;;11.30;99.90;;;;;;6730078;88;20503;-77
2023/03/21 22:57:54;;;;;;;1999.90;999.90;;;11.20;99.90;;;;;;6738389;88;20251;-77
2023/03/21 23:07:55;;;;;;;1999.90;999.90;;;11.20;99.90;;;;;;6724581;88;20544;-76
2023/03/21 23:17:56;;;;;;;1999.90;999.90;;;11.00;99.90;;;;;;6718286;88;20304;-76
2023/03/21 23:27:57;;;;;;;1999.90;999.90;;;10.90;99.90;;;;;;6717310;88;20322;-76
2023/03/21 23:37:57;;;;;;;1999.90;999.90;;;11.00;99.90;;;;;;6733348;88;20239;-76
2023/03/21 23:47:58;;;;;;;1999.90;999.90;;;10.90;99.90;;;;;;6721840;88;20777;-77
2023/03/21 23:57:58;;;;;;;1999.90;999.90;;;10.90;99.90;;;;;;6712382;88;20731;-78
